sensor_id;sensor_type;location;lat;lon;timestamp;pressure;altitude;pressure_sealevel;temperature;humidity
77003;BME280;65939;50.060;14.288;2023-03-11T00:00:30;94834.88;;;5.37;79.03
77003;BME280;65939;50.060;14.288;2023-03-11T00:02:32;94839.81;;;5.32;79.33
77003;BME280;65939;50.060;14.288;2023-03-11T00:04:32;94841.78;;;5.29;79.80
77003;BME280;65939;50.060;14.288;2023-03-11T00:06:34;94857.06;;;5.24;79.52
77003;BME280;65939;50.060;14.288;2023-03-11T00:08:35;94859.22;;;5.21;79.77
77003;BME280;65939;50.060;14.288;2023-03-11T00:10:39;94890.53;;;5.11;79.61
77003;BME280;65939;50.060;14.288;2023-03-11T00:12:40;94899.22;;;4.74;79.96
77003;BME280;65939;50.060;14.288;2023-03-11T00:14:40;94914.22;;;4.41;80.84
77003;BME280;65939;50.060;14.288;2023-03-11T00:16:41;94914.00;;;4.13;81.50
77003;BME280;65939;50.060;14.288;2023-03-11T00:18:42;94919.47;;;3.95;82.60
77003;BME280;65939;50.060;14.288;2023-03-11T00:20:44;94933.50;;;3.77;82.84
77003;BME280;65939;50.060;14.288;2023-03-11T00:22:46;94954.56;;;3.58;82.96
77003;BME280;65939;50.060;14.288;2023-03-11T00:24:46;94951.44;;;3.40;82.66
77003;BME280;65939;50.060;14.288;2023-03-11T00:26:47;94969.06;;;3.28;82.91
77003;BME280;65939;50.060;14.288;2023-03-11T00:28:48;94958.66;;;3.05;82.83
77003;BME280;65939;50.060;14.288;2023-03-11T00:30:48;94970.00;;;2.87;83.40
77003;BME280;65939;50.060;14.288;2023-03-11T00:32:51;94979.69;;;2.77;84.37
77003;BME280;65939;50.060;14.288;2023-03-11T00:34:52;94986.47;;;2.70;84.38
77003;BME280;65939;50.060;14.288;2023-03-11T00:36:52;94991.16;;;2.58;84.98
77003;BME280;65939;50.060;14.288;2023-03-11T00:38:53;94982.63;;;2.42;85.02
77003;BME280;65939;50.060;14.288;2023-03-11T00:40:54;94985.41;;;2.32;85.57
77003;BME280;65939;50.060;14.288;2023-03-11T00:42:56;94993.59;;;2.27;85.64
77003;BME280;65939;50.060;14.288;2023-03-11T00:44:56;94998.44;;;2.22;85.85
77003;BME280;65939;50.060;14.288;2023-03-11T00:46:57;94992.31;;;2.15;85.96
77003;BME280;65939;50.060;14.288;2023-03-11T00:48:58;95002.91;;;2.12;85.24
77003;BME280;65939;50.060;14.288;2023-03-11T00:50:58;94999.88;;;2.08;85.45
77003;BME280;65939;50.060;14.288;2023-03-11T00:53:00;95006.44;;;2.03;85.82
77003;BME280;65939;50.060;14.288;2023-03-11T00:55:00;95018.69;;;2.01;85.37
77003;BME280;65939;50.060;14.288;2023-03-11T00:57:01;95010.28;;;1.99;85.46
77003;BME280;65939;50.060;14.288;2023-03-11T00:59:02;95021.88;;;1.95;85.27
77003;BME280;65939;50.060;14.288;2023-03-11T01:01:10;95022.69;;;1.95;84.93
77003;BME280;65939;50.060;14.288;2023-03-11T01:03:12;95026.88;;;1.96;85.66
77003;BME280;65939;50.060;14.288;2023-03-11T01:05:13;95026.72;;;1.98;84.88
77003;BME280;65939;50.060;14.288;2023-03-11T01:07:14;95031.06;;;1.97;85.33
77003;BME280;65939;50.060;14.288;2023-03-11T01:09:15;95036.03;;;1.99;84.94
77003;BME280;65939;50.060;14.288;2023-03-11T01:11:15;95011.94;;;2.00;84.87
77003;BME280;65939;50.060;14.288;2023-03-11T01:13:16;95037.00;;;1.98;84.52
77003;BME280;65939;50.060;14.288;2023-03-11T01:15:41;95047.94;;;2.00;84.17
77003;BME280;65939;50.060;14.288;2023-03-11T01:17:41;95050.84;;;1.97;83.96
77003;BME280;65939;50.060;14.288;2023-03-11T01:19:42;95047.59;;;1.95;83.99
77003;BME280;65939;50.060;14.288;2023-03-11T01:21:44;95057.72;;;1.88;83.98
77003;BME280;65939;50.060;14.288;2023-03-11T01:23:45;95064.00;;;1.85;83.63
77003;BME280;65939;50.060;14.288;2023-03-11T01:25:45;95075.22;;;1.84;83.79
77003;BME280;65939;50.060;14.288;2023-03-11T01:27:46;95070.25;;;1.83;83.54
77003;BME280;65939;50.060;14.288;2023-03-11T01:29:46;95073.63;;;1.83;82.93
77003;BME280;65939;50.060;14.288;2023-03-11T01:31:47;95083.25;;;1.81;83.04
77003;BME280;65939;50.060;14.288;2023-03-11T01:33:48;95078.28;;;1.80;83.09
77003;BME280;65939;50.060;14.288;2023-03-11T01:35:48;95082.47;;;1.81;82.93
77003;BME280;65939;50.060;14.288;2023-03-11T01:37:50;95084.59;;;1.85;83.00
77003;BME280;65939;50.060;14.288;2023-03-11T01:39:51;95087.78;;;1.87;82.42
77003;BME280;65939;50.060;14.288;2023-03-11T01:41:52;95085.06;;;1.89;82.50
77003;BME280;65939;50.060;14.288;2023-03-11T01:43:55;95097.94;;;1.89;81.77
77003;BME280;65939;50.060;14.288;2023-03-11T01:47:57;95105.31;;;1.92;81.40
77003;BME280;65939;50.060;14.288;2023-03-11T01:49:57;95114.69;;;1.93;81.13
77003;BME280;65939;50.060;14.288;2023-03-11T01:52:04;95112.91;;;1.94;80.74
77003;BME280;65939;50.060;14.288;2023-03-11T01:54:12;95112.91;;;1.94;80.76
77003;BME280;65939;50.060;14.288;2023-03-11T01:56:14;95127.69;;;1.91;80.63
77003;BME280;65939;50.060;14.288;2023-03-11T01:58:20;95126.25;;;1.89;80.60
77003;BME280;65939;50.060;14.288;2023-03-11T02:00:23;95126.06;;;1.82;81.81
77003;BME280;65939;50.060;14.288;2023-03-11T02:02:35;95133.09;;;1.80;81.90
77003;BME280;65939;50.060;14.288;2023-03-11T02:04:40;95117.03;;;1.78;81.96
77003;BME280;65939;50.060;14.288;2023-03-11T02:06:41;95123.91;;;1.78;81.57
77003;BME280;65939;50.060;14.288;2023-03-11T02:08:43;95118.16;;;1.76;81.33
77003;BME280;65939;50.060;14.288;2023-03-11T02:10:45;95139.53;;;1.76;81.42
77003;BME280;65939;50.060;14.288;2023-03-11T02:12:48;95141.13;;;1.77;81.22
77003;BME280;65939;50.060;14.288;2023-03-11T02:14:51;95122.81;;;1.80;81.81
77003;BME280;65939;50.060;14.288;2023-03-11T02:16:56;95140.19;;;1.78;81.21
77003;BME280;65939;50.060;14.288;2023-03-11T02:19:05;95135.84;;;1.79;80.93
77003;BME280;65939;50.060;14.288;2023-03-11T02:21:28;95149.66;;;1.78;81.43
77003;BME280;65939;50.060;14.288;2023-03-11T02:23:43;95149.00;;;1.76;81.09
77003;BME280;65939;50.060;14.288;2023-03-11T02:27:52;95165.41;;;1.75;81.28
77003;BME280;65939;50.060;14.288;2023-03-11T02:29:54;95154.28;;;1.74;81.73
77003;BME280;65939;50.060;14.288;2023-03-11T02:31:59;95164.44;;;1.76;81.88
77003;BME280;65939;50.060;14.288;2023-03-11T02:34:01;95175.72;;;1.75;80.97
77003;BME280;65939;50.060;14.288;2023-03-11T02:36:04;95163.78;;;1.74;81.80
77003;BME280;65939;50.060;14.288;2023-03-11T02:38:05;95169.09;;;1.72;81.44
77003;BME280;65939;50.060;14.288;2023-03-11T02:42:28;95169.09;;;1.72;81.00
77003;BME280;65939;50.060;14.288;2023-03-11T02:44:30;95180.34;;;1.71;82.07
77003;BME280;65939;50.060;14.288;2023-03-11T02:46:34;95169.56;;;1.67;81.55
77003;BME280;65939;50.060;14.288;2023-03-11T02:48:35;95188.66;;;1.65;81.78
77003;BME280;65939;50.060;14.288;2023-03-11T02:50:38;95184.50;;;1.64;81.70
77003;BME280;65939;50.060;14.288;2023-03-11T02:52:40;95189.94;;;1.61;81.00
77003;BME280;65939;50.060;14.288;2023-03-11T02:54:40;95196.00;;;1.60;80.71
77003;BME280;65939;50.060;14.288;2023-03-11T02:56:41;95189.28;;;1.59;81.46
77003;BME280;65939;50.060;14.288;2023-03-11T02:58:41;95206.97;;;1.62;81.23
77003;BME280;65939;50.060;14.288;2023-03-11T03:00:42;95204.56;;;1.60;81.71
77003;BME280;65939;50.060;14.288;2023-03-11T03:02:44;95200.34;;;1.59;81.87
77003;BME280;65939;50.060;14.288;2023-03-11T03:04:45;95214.84;;;1.60;81.35
77003;BME280;65939;50.060;14.288;2023-03-11T03:06:45;95222.69;;;1.59;80.76
77003;BME280;65939;50.060;14.288;2023-03-11T03:08:46;95226.22;;;1.58;81.25
77003;BME280;65939;50.060;14.288;2023-03-11T03:10:47;95201.63;;;1.55;80.33
77003;BME280;65939;50.060;14.288;2023-03-11T03:12:47;95223.63;;;1.50;81.30
77003;BME280;65939;50.060;14.288;2023-03-11T03:14:48;95233.91;;;1.50;80.63
77003;BME280;65939;50.060;14.288;2023-03-11T03:16:49;95235.50;;;1.51;80.64
77003;BME280;65939;50.060;14.288;2023-03-11T03:18:49;95235.50;;;1.51;80.20
77003;BME280;65939;50.060;14.288;2023-03-11T03:20:51;95236.16;;;1.53;79.82
77003;BME280;65939;50.060;14.288;2023-03-11T03:22:53;95227.63;;;1.52;79.98
77003;BME280;65939;50.060;14.288;2023-03-11T03:24:54;95247.09;;;1.55;80.09
77003;BME280;65939;50.060;14.288;2023-03-11T03:26:54;95247.09;;;1.55;79.77
77003;BME280;65939;50.060;14.288;2023-03-11T03:28:55;95243.88;;;1.53;79.53
77003;BME280;65939;50.060;14.288;2023-03-11T03:31:02;95250.66;;;1.54;78.93
77003;BME280;65939;50.060;14.288;2023-03-11T03:33:04;95245.63;;;1.52;79.21
77003;BME280;65939;50.060;14.288;2023-03-11T03:35:05;95249.34;;;1.50;79.46
77003;BME280;65939;50.060;14.288;2023-03-11T03:37:06;95259.63;;;1.50;79.23
77003;BME280;65939;50.060;14.288;2023-03-11T03:39:07;95251.53;;;1.44;79.12
77003;BME280;65939;50.060;14.288;2023-03-11T03:41:08;95263.75;;;1.42;78.76
77003;BME280;65939;50.060;14.288;2023-03-11T03:43:09;95272.09;;;1.44;78.69
77003;BME280;65939;50.060;14.288;2023-03-11T03:45:09;95275.34;;;1.47;78.78
77003;BME280;65939;50.060;14.288;2023-03-11T03:47:10;95276.44;;;1.44;78.61
77003;BME280;65939;50.060;14.288;2023-03-11T03:49:11;95280.09;;;1.41;77.81
77003;BME280;65939;50.060;14.288;2023-03-11T03:51:13;95271.75;;;1.39;77.62
77003;BME280;65939;50.060;14.288;2023-03-11T03:53:13;95275.13;;;1.40;78.21
77003;BME280;65939;50.060;14.288;2023-03-11T03:55:14;95286.50;;;1.37;78.43
77003;BME280;65939;50.060;14.288;2023-03-11T03:57:15;95288.44;;;1.35;77.58
77003;BME280;65939;50.060;14.288;2023-03-11T03:59:16;95290.03;;;1.36;77.40
77003;BME280;65939;50.060;14.288;2023-03-11T04:01:16;95295.47;;;1.33;78.03
77003;BME280;65939;50.060;14.288;2023-03-11T04:03:17;95280.22;;;1.32;77.44
77003;BME280;65939;50.060;14.288;2023-03-11T04:05:17;95300.78;;;1.32;77.29
77003;BME280;65939;50.060;14.288;2023-03-11T04:07:18;95296.44;;;1.32;77.17
77003;BME280;65939;50.060;14.288;2023-03-11T04:09:19;95304.56;;;1.28;77.04
77003;BME280;65939;50.060;14.288;2023-03-11T04:11:20;95315.00;;;1.26;77.48
77003;BME280;65939;50.060;14.288;2023-03-11T04:13:21;95311.78;;;1.24;77.82
77003;BME280;65939;50.060;14.288;2023-03-11T04:15:22;95314.34;;;1.24;77.39
77003;BME280;65939;50.060;14.288;2023-03-11T04:17:22;95304.22;;;1.23;78.35
77003;BME280;65939;50.060;14.288;2023-03-11T04:19:23;95336.44;;;1.17;77.68
77003;BME280;65939;50.060;14.288;2023-03-11T04:21:24;95317.00;;;1.14;77.27
77003;BME280;65939;50.060;14.288;2023-03-11T04:23:24;95321.63;;;1.11;76.96
77003;BME280;65939;50.060;14.288;2023-03-11T04:25:25;95365.31;;;1.11;77.27
77003;BME280;65939;50.060;14.288;2023-03-11T04:27:26;95335.41;;;1.10;77.49
77003;BME280;65939;50.060;14.288;2023-03-11T04:29:27;95344.06;;;1.09;77.88
77003;BME280;65939;50.060;14.288;2023-03-11T04:31:28;95347.59;;;1.08;77.64
77003;BME280;65939;50.060;14.288;2023-03-11T04:33:29;95341.66;;;1.07;77.96
77003;BME280;65939;50.060;14.288;2023-03-11T04:35:29;95345.16;;;1.06;77.48
77003;BME280;65939;50.060;14.288;2023-03-11T04:37:30;95336.81;;;1.04;76.92
77003;BME280;65939;50.060;14.288;2023-03-11T04:39:30;95367.50;;;1.06;77.56
77003;BME280;65939;50.060;14.288;2023-03-11T04:41:31;95369.25;;;1.05;77.55
77003;BME280;65939;50.060;14.288;2023-03-11T04:43:32;95379.00;;;1.02;77.34
77003;BME280;65939;50.060;14.288;2023-03-11T04:45:33;95376.72;;;0.99;78.14
77003;BME280;65939;50.060;14.288;2023-03-11T04:47:36;95372.69;;;0.96;77.34
77003;BME280;65939;50.060;14.288;2023-03-11T04:49:36;95386.34;;;0.97;77.89
77003;BME280;65939;50.060;14.288;2023-03-11T04:51:37;95392.06;;;0.90;77.80
77003;BME280;65939;50.060;14.288;2023-03-11T04:53:38;95393.94;;;0.88;77.13
77003;BME280;65939;50.060;14.288;2023-03-11T04:55:38;95404.22;;;0.88;77.98
77003;BME280;65939;50.060;14.288;2023-03-11T04:57:40;95412.38;;;0.84;77.84
77003;BME280;65939;50.060;14.288;2023-03-11T04:59:41;95392.91;;;0.81;77.71
77003;BME280;65939;50.060;14.288;2023-03-11T05:01:42;95422.91;;;0.81;77.71
77003;BME280;65939;50.060;14.288;2023-03-11T05:03:42;95406.69;;;0.80;78.14
77003;BME280;65939;50.060;14.288;2023-03-11T05:05:43;95431.59;;;0.80;77.54
77003;BME280;65939;50.060;14.288;2023-03-11T05:07:44;95430.78;;;0.79;77.71
77003;BME280;65939;50.060;14.288;2023-03-11T05:09:44;95443.63;;;0.79;77.45
77003;BME280;65939;50.060;14.288;2023-03-11T05:11:45;95440.09;;;0.80;77.86
77003;BME280;65939;50.060;14.288;2023-03-11T05:13:45;95464.28;;;0.78;77.93
77003;BME280;65939;50.060;14.288;2023-03-11T05:15:46;95468.91;;;0.74;78.75
77003;BME280;65939;50.060;14.288;2023-03-11T05:17:47;95474.31;;;0.71;79.24
77003;BME280;65939;50.060;14.288;2023-03-11T05:19:48;95482.16;;;0.69;79.19
77003;BME280;65939;50.060;14.288;2023-03-11T05:21:48;95470.28;;;0.68;79.10
77003;BME280;65939;50.060;14.288;2023-03-11T05:23:49;95488.00;;;0.62;78.70
77003;BME280;65939;50.060;14.288;2023-03-11T05:25:51;95486.38;;;0.61;78.70
77003;BME280;65939;50.060;14.288;2023-03-11T05:27:51;95489.22;;;0.58;79.02
77003;BME280;65939;50.060;14.288;2023-03-11T05:29:52;95513.94;;;0.59;79.16
77003;BME280;65939;50.060;14.288;2023-03-11T05:31:53;95505.56;;;0.57;79.25
77003;BME280;65939;50.060;14.288;2023-03-11T05:33:54;95504.91;;;0.55;79.56
77003;BME280;65939;50.060;14.288;2023-03-11T05:35:54;95514.66;;;0.51;79.13
77003;BME280;65939;50.060;14.288;2023-03-11T05:37:55;95520.06;;;0.48;79.47
77003;BME280;65939;50.060;14.288;2023-03-11T05:39:55;95517.47;;;0.48;79.23
77003;BME280;65939;50.060;14.288;2023-03-11T05:41:56;95524.38;;;0.47;79.36
77003;BME280;65939;50.060;14.288;2023-03-11T05:43:57;95529.63;;;0.46;79.91
77003;BME280;65939;50.060;14.288;2023-03-11T05:45:57;95540.75;;;0.46;80.03
77003;BME280;65939;50.060;14.288;2023-03-11T05:47:58;95545.44;;;0.41;79.31
77003;BME280;65939;50.060;14.288;2023-03-11T05:49:59;95550.59;;;0.41;79.63
77003;BME280;65939;50.060;14.288;2023-03-11T05:51:59;95553.84;;;0.43;79.55
77003;BME280;65939;50.060;14.288;2023-03-11T05:54:00;95553.69;;;0.45;80.31
77003;BME280;65939;50.060;14.288;2023-03-11T05:56:02;95560.72;;;0.43;80.26
77003;BME280;65939;50.060;14.288;2023-03-11T05:58:03;95565.03;;;0.42;80.08
77003;BME280;65939;50.060;14.288;2023-03-11T06:00:07;95571.81;;;0.43;80.57
77003;BME280;65939;50.060;14.288;2023-03-11T06:02:11;95584.66;;;0.43;79.91
77003;BME280;65939;50.060;14.288;2023-03-11T06:04:12;95597.59;;;0.42;80.69
77003;BME280;65939;50.060;14.288;2023-03-11T06:06:13;95594.75;;;0.45;80.12
77003;BME280;65939;50.060;14.288;2023-03-11T06:08:14;95593.69;;;0.47;80.20
77003;BME280;65939;50.060;14.288;2023-03-11T06:10:15;95608.41;;;0.45;79.79
77003;BME280;65939;50.060;14.288;2023-03-11T06:12:16;95605.84;;;0.45;80.27
77003;BME280;65939;50.060;14.288;2023-03-11T06:14:16;95602.47;;;0.45;80.27
77003;BME280;65939;50.060;14.288;2023-03-11T06:16:17;95613.53;;;0.45;79.66
77003;BME280;65939;50.060;14.288;2023-03-11T06:18:18;95612.88;;;0.43;80.51
77003;BME280;65939;50.060;14.288;2023-03-11T06:20:18;95623.16;;;0.43;80.68
77003;BME280;65939;50.060;14.288;2023-03-11T06:22:19;95624.75;;;0.44;80.27
77003;BME280;65939;50.060;14.288;2023-03-11T06:24:19;95628.94;;;0.45;80.10
77003;BME280;65939;50.060;14.288;2023-03-11T06:26:21;95640.00;;;0.46;79.79
77003;BME280;65939;50.060;14.288;2023-03-11T06:28:22;95635.44;;;0.50;79.97
77003;BME280;65939;50.060;14.288;2023-03-11T06:30:23;95647.06;;;0.54;78.98
77003;BME280;65939;50.060;14.288;2023-03-11T06:32:24;95653.56;;;0.58;79.31
77003;BME280;65939;50.060;14.288;2023-03-11T06:34:25;95660.69;;;0.64;79.65
77003;BME280;65939;50.060;14.288;2023-03-11T06:36:26;95662.88;;;0.68;79.02
77003;BME280;65939;50.060;14.288;2023-03-11T06:38:26;95679.50;;;0.74;78.47
77003;BME280;65939;50.060;14.288;2023-03-11T06:40:27;95672.47;;;0.76;78.78
77003;BME280;65939;50.060;14.288;2023-03-11T06:42:28;95685.72;;;0.81;78.95
77003;BME280;65939;50.060;14.288;2023-03-11T06:44:28;95693.84;;;0.86;78.33
77003;BME280;65939;50.060;14.288;2023-03-11T06:46:29;95684.38;;;0.87;77.54
77003;BME280;65939;50.060;14.288;2023-03-11T06:48:30;95695.03;;;0.92;77.62
77003;BME280;65939;50.060;14.288;2023-03-11T06:50:31;95702.75;;;0.92;76.83
77003;BME280;65939;50.060;14.288;2023-03-11T06:52:32;95706.97;;;0.93;76.47
77003;BME280;65939;50.060;14.288;2023-03-11T06:54:33;95703.03;;;0.89;75.11
77003;BME280;65939;50.060;14.288;2023-03-11T06:56:34;95713.19;;;0.90;75.53
77003;BME280;65939;50.060;14.288;2023-03-11T06:58:36;95718.31;;;0.90;75.43
77003;BME280;65939;50.060;14.288;2023-03-11T07:00:38;95710.06;;;0.87;75.77
77003;BME280;65939;50.060;14.288;2023-03-11T07:02:38;95734.00;;;0.87;74.96
77003;BME280;65939;50.060;14.288;2023-03-11T07:04:39;95725.59;;;0.85;74.22
77003;BME280;65939;50.060;14.288;2023-03-11T07:06:41;95736.03;;;0.84;74.46
77003;BME280;65939;50.060;14.288;2023-03-11T07:08:42;95756.44;;;0.85;74.64
77003;BME280;65939;50.060;14.288;2023-03-11T07:10:43;95746.16;;;0.85;74.60
77003;BME280;65939;50.060;14.288;2023-03-11T07:12:44;95780.50;;;0.84;74.12
77003;BME280;65939;50.060;14.288;2023-03-11T07:14:45;95761.56;;;0.85;73.99
77003;BME280;65939;50.060;14.288;2023-03-11T07:16:45;95775.78;;;0.89;74.27
77003;BME280;65939;50.060;14.288;2023-03-11T07:18:48;95784.16;;;0.91;74.06
77003;BME280;65939;50.060;14.288;2023-03-11T07:20:49;95793.47;;;0.92;74.80
77003;BME280;65939;50.060;14.288;2023-03-11T07:22:50;95804.44;;;0.94;73.95
77003;BME280;65939;50.060;14.288;2023-03-11T07:24:50;95801.34;;;0.91;74.33
77003;BME280;65939;50.060;14.288;2023-03-11T07:26:51;95821.88;;;0.91;74.20
77003;BME280;65939;50.060;14.288;2023-03-11T07:28:55;95821.75;;;0.92;74.75
77003;BME280;65939;50.060;14.288;2023-03-11T07:30:57;95825.25;;;0.91;74.76
77003;BME280;65939;50.060;14.288;2023-03-11T07:32:57;95835.53;;;0.91;74.17
77003;BME280;65939;50.060;14.288;2023-03-11T07:35:17;95848.25;;;0.83;74.35
77003;BME280;65939;50.060;14.288;2023-03-11T07:37:17;95823.63;;;0.81;74.75
77003;BME280;65939;50.060;14.288;2023-03-11T07:39:18;95835.81;;;0.79;74.97
77003;BME280;65939;50.060;14.288;2023-03-11T07:41:19;95844.06;;;0.82;75.27
77003;BME280;65939;50.060;14.288;2023-03-11T07:43:20;95840.53;;;0.83;75.80
77003;BME280;65939;50.060;14.288;2023-03-11T07:45:21;95844.72;;;0.84;76.16
77003;BME280;65939;50.060;14.288;2023-03-11T07:47:22;95842.84;;;0.86;76.39
77003;BME280;65939;50.060;14.288;2023-03-11T07:49:24;95859.19;;;0.85;75.88
77003;BME280;65939;50.060;14.288;2023-03-11T07:51:28;95857.16;;;0.89;76.60
77003;BME280;65939;50.060;14.288;2023-03-11T07:53:29;95867.72;;;0.95;76.11
77003;BME280;65939;50.060;14.288;2023-03-11T07:55:30;95865.72;;;0.99;76.32
77003;BME280;65939;50.060;14.288;2023-03-11T07:57:31;95860.47;;;1.01;75.74
77003;BME280;65939;50.060;14.288;2023-03-11T07:59:31;95870.47;;;1.04;76.39
77003;BME280;65939;50.060;14.288;2023-03-11T08:01:33;95870.88;;;1.09;76.05
77003;BME280;65939;50.060;14.288;2023-03-11T08:03:39;95867.25;;;1.11;75.95
77003;BME280;65939;50.060;14.288;2023-03-11T08:05:40;95867.94;;;1.23;75.66
77003;BME280;65939;50.060;14.288;2023-03-11T08:07:41;95876.72;;;1.30;75.71
77003;BME280;65939;50.060;14.288;2023-03-11T08:09:42;95883.13;;;1.36;75.12
77003;BME280;65939;50.060;14.288;2023-03-11T08:11:42;95878.91;;;1.44;75.61
77003;BME280;65939;50.060;14.288;2023-03-11T08:13:44;95884.34;;;1.51;76.05
77003;BME280;65939;50.060;14.288;2023-03-11T08:15:45;95882.44;;;1.63;75.95
77003;BME280;65939;50.060;14.288;2023-03-11T08:17:46;95884.63;;;1.67;75.12
77003;BME280;65939;50.060;14.288;2023-03-11T08:19:48;95883.53;;;1.70;75.19
77003;BME280;65939;50.060;14.288;2023-03-11T08:21:48;95898.94;;;1.70;75.22
77003;BME280;65939;50.060;14.288;2023-03-11T08:23:50;95902.88;;;1.74;75.19
77003;BME280;65939;50.060;14.288;2023-03-11T08:25:51;95906.66;;;1.70;74.67
77003;BME280;65939;50.060;14.288;2023-03-11T08:27:51;95913.84;;;1.66;74.42
77003;BME280;65939;50.060;14.288;2023-03-11T08:29:52;95910.63;;;1.64;75.24
77003;BME280;65939;50.060;14.288;2023-03-11T08:31:53;95921.44;;;1.68;75.32
77003;BME280;65939;50.060;14.288;2023-03-11T08:34:00;95924.53;;;1.52;74.27
77003;BME280;65939;50.060;14.288;2023-03-11T08:36:01;95935.22;;;1.48;75.06
77003;BME280;65939;50.060;14.288;2023-03-11T08:38:02;95931.97;;;1.46;75.33
77003;BME280;65939;50.060;14.288;2023-03-11T08:40:03;95941.16;;;1.38;75.18
77003;BME280;65939;50.060;14.288;2023-03-11T08:42:04;95942.22;;;1.26;74.74
77003;BME280;65939;50.060;14.288;2023-03-11T08:44:05;95947.63;;;1.23;74.61
77003;BME280;65939;50.060;14.288;2023-03-11T08:46:06;95951.53;;;1.27;74.45
77003;BME280;65939;50.060;14.288;2023-03-11T08:48:09;95948.97;;;1.27;74.93
77003;BME280;65939;50.060;14.288;2023-03-11T08:50:14;95953.19;;;1.28;74.14
77003;BME280;65939;50.060;14.288;2023-03-11T08:52:15;95955.22;;;1.34;74.22
77003;BME280;65939;50.060;14.288;2023-03-11T08:54:16;95959.69;;;1.42;74.15
77003;BME280;65939;50.060;14.288;2023-03-11T08:56:17;95966.22;;;1.46;74.74
77003;BME280;65939;50.060;14.288;2023-03-11T08:58:19;95968.25;;;1.52;74.27
77003;BME280;65939;50.060;14.288;2023-03-11T09:00:20;95977.72;;;1.52;74.31
77003;BME280;65939;50.060;14.288;2023-03-11T09:02:21;95972.28;;;1.45;73.87
77003;BME280;65939;50.060;14.288;2023-03-11T09:04:21;95975.41;;;1.49;74.43
77003;BME280;65939;50.060;14.288;2023-03-11T09:06:22;95977.47;;;1.55;74.52
77003;BME280;65939;50.060;14.288;2023-03-11T09:08:23;95978.16;;;1.57;73.80
77003;BME280;65939;50.060;14.288;2023-03-11T09:10:24;95986.91;;;1.44;72.37
77003;BME280;65939;50.060;14.288;2023-03-11T09:12:25;96002.03;;;1.38;73.48
77003;BME280;65939;50.060;14.288;2023-03-11T09:14:25;96000.56;;;1.35;73.64
77003;BME280;65939;50.060;14.288;2023-03-11T09:16:26;96008.00;;;1.38;73.82
77003;BME280;65939;50.060;14.288;2023-03-11T09:18:27;96003.50;;;1.31;73.76
77003;BME280;65939;50.060;14.288;2023-03-11T09:20:28;96003.41;;;1.32;73.50
77003;BME280;65939;50.060;14.288;2023-03-11T09:22:29;96014.59;;;1.31;74.16
77003;BME280;65939;50.060;14.288;2023-03-11T09:24:34;96020.16;;;1.27;74.18
77003;BME280;65939;50.060;14.288;2023-03-11T09:26:34;96028.81;;;1.26;73.70
77003;BME280;65939;50.060;14.288;2023-03-11T09:28:35;96048.81;;;1.22;73.76
77003;BME280;65939;50.060;14.288;2023-03-11T09:30:36;96038.22;;;1.15;73.61
77003;BME280;65939;50.060;14.288;2023-03-11T09:32:37;96045.44;;;1.22;74.00
77003;BME280;65939;50.060;14.288;2023-03-11T09:34:38;96043.03;;;1.30;74.29
77003;BME280;65939;50.060;14.288;2023-03-11T09:36:42;96031.69;;;1.32;73.95
77003;BME280;65939;50.060;14.288;2023-03-11T09:38:43;96044.84;;;1.39;73.67
77003;BME280;65939;50.060;14.288;2023-03-11T09:40:51;96044.84;;;1.49;73.39
77003;BME280;65939;50.060;14.288;2023-03-11T09:43:24;96055.72;;;1.62;72.98
77003;BME280;65939;50.060;14.288;2023-03-11T09:45:38;96060.88;;;1.62;72.35
77003;BME280;65939;50.060;14.288;2023-03-11T09:52:29;96077.47;;;1.98;73.00
77003;BME280;65939;50.060;14.288;2023-03-11T09:54:37;96073.53;;;1.84;71.11
77003;BME280;65939;50.060;14.288;2023-03-11T09:56:41;96078.38;;;1.68;71.57
77003;BME280;65939;50.060;14.288;2023-03-11T10:00:48;96086.75;;;1.70;72.41
77003;BME280;65939;50.060;14.288;2023-03-11T10:02:51;96092.59;;;1.72;72.53
77003;BME280;65939;50.060;14.288;2023-03-11T10:05:03;96102.78;;;1.83;72.38
77003;BME280;65939;50.060;14.288;2023-03-11T10:07:13;96108.75;;;1.84;71.79
77003;BME280;65939;50.060;14.288;2023-03-11T10:11:49;96099.31;;;2.04;72.70
77003;BME280;65939;50.060;14.288;2023-03-11T10:16:45;96119.22;;;2.02;71.82
77003;BME280;65939;50.060;14.288;2023-03-11T10:19:14;96116.22;;;1.97;71.90
77003;BME280;65939;50.060;14.288;2023-03-11T10:21:40;96118.41;;;2.01;72.05
77003;BME280;65939;50.060;14.288;2023-03-11T10:26:33;96119.72;;;1.96;71.37
77003;BME280;65939;50.060;14.288;2023-03-11T10:28:45;96119.47;;;1.99;71.64
77003;BME280;65939;50.060;14.288;2023-03-11T10:31:07;96140.88;;;1.89;70.68
77003;BME280;65939;50.060;14.288;2023-03-11T10:33:23;96127.97;;;1.80;71.18
77003;BME280;65939;50.060;14.288;2023-03-11T10:35:47;96137.84;;;1.75;72.07
77003;BME280;65939;50.060;14.288;2023-03-11T10:37:58;96138.66;;;1.75;72.25
77003;BME280;65939;50.060;14.288;2023-03-11T10:40:36;96147.03;;;1.77;71.45
77003;BME280;65939;50.060;14.288;2023-03-11T10:42:38;96153.34;;;1.63;71.16
77003;BME280;65939;50.060;14.288;2023-03-11T10:44:41;96147.47;;;1.52;72.07
77003;BME280;65939;50.060;14.288;2023-03-11T10:46:42;96141.75;;;1.48;71.13
77003;BME280;65939;50.060;14.288;2023-03-11T10:48:42;96146.81;;;1.50;71.88
77003;BME280;65939;50.060;14.288;2023-03-11T10:53:18;96160.72;;;1.26;71.31
77003;BME280;65939;50.060;14.288;2023-03-11T10:55:19;96163.38;;;1.15;72.21
77003;BME280;65939;50.060;14.288;2023-03-11T10:57:32;96166.56;;;1.07;73.14
77003;BME280;65939;50.060;14.288;2023-03-11T11:01:55;96173.88;;;0.91;72.92
77003;BME280;65939;50.060;14.288;2023-03-11T11:03:59;96172.25;;;0.90;73.36
77003;BME280;65939;50.060;14.288;2023-03-11T11:06:06;96177.88;;;0.84;75.15
77003;BME280;65939;50.060;14.288;2023-03-11T11:08:18;96176.13;;;0.84;75.77
77003;BME280;65939;50.060;14.288;2023-03-11T11:10:23;96180.06;;;0.88;75.68
77003;BME280;65939;50.060;14.288;2023-03-11T11:12:24;96179.72;;;0.93;75.84
77003;BME280;65939;50.060;14.288;2023-03-11T11:14:25;96171.72;;;1.07;76.55